createdAt,value
2022-10-18T00:00:45.807Z,0.80
2022-10-18T00:03:12.731Z,0.73
2022-10-18T00:05:41.407Z,0.80
2022-10-18T00:08:08.292Z,0.70
2022-10-18T00:10:35.371Z,0.65
2022-10-18T00:13:02.272Z,0.80
2022-10-18T00:15:29.855Z,0.63
2022-10-18T00:17:56.596Z,0.70
2022-10-18T00:20:23.463Z,0.40
2022-10-18T00:22:50.302Z,0.75
2022-10-18T00:25:18.057Z,0.63
2022-10-18T00:27:44.997Z,0.82
2022-10-18T00:30:11.884Z,0.90
2022-10-18T00:32:40.277Z,0.82
2022-10-18T00:35:07.962Z,0.90
2022-10-18T00:37:35.787Z,0.77
2022-10-18T00:40:02.755Z,1.05
2022-10-18T00:42:33.616Z,1.20
2022-10-18T00:45:23.226Z,1.15
2022-10-18T00:47:59.847Z,1.50
2022-10-18T00:50:28.979Z,1.80
2022-10-18T00:52:59.805Z,1.00
2022-10-18T00:55:28.174Z,1.30
2022-10-18T00:57:56.048Z,1.08
2022-10-18T01:00:23.375Z,1.27
2022-10-18T01:02:50.222Z,1.30
2022-10-18T01:05:18.823Z,0.98
2022-10-18T01:08:19.430Z,1.02
2022-10-18T01:10:58.409Z,1.05
2022-10-18T01:13:34.331Z,0.80
2022-10-18T01:16:31.940Z,0.70
2022-10-18T01:19:23.454Z,1.10
2022-10-18T01:22:03.156Z,1.75
2022-10-18T01:24:48.567Z,1.50
2022-10-18T01:27:47.751Z,1.25
2022-10-18T01:30:26.631Z,0.88
2022-10-18T01:32:58.742Z,1.17
2022-10-18T01:35:32.055Z,0.95
2022-10-18T01:38:03.813Z,1.10
2022-10-18T01:40:32.059Z,0.82
2022-10-18T01:42:59.757Z,1.23
2022-10-18T01:45:27.646Z,1.50
2022-10-18T01:47:55.512Z,1.13
2022-10-18T01:50:35.763Z,1.10
2022-10-18T01:53:03.287Z,1.15
2022-10-18T01:55:34.752Z,0.95
2022-10-18T01:58:21.547Z,1.05
2022-10-18T02:00:54.060Z,1.08
2022-10-18T02:03:26.294Z,1.20
2022-10-18T02:06:15.200Z,2.22
2022-10-18T02:08:52.546Z,1.13
2022-10-18T02:11:19.686Z,1.58
2022-10-18T02:14:04.314Z,1.30
2022-10-18T02:16:52.230Z,0.93
2022-10-18T02:19:31.633Z,1.02
2022-10-18T02:21:59.445Z,2.10
2022-10-18T02:24:33.608Z,1.50
2022-10-18T02:27:00.802Z,1.27
2022-10-18T02:29:28.215Z,1.10
2022-10-18T02:32:11.626Z,1.10
2022-10-18T02:34:44.295Z,1.40
2022-10-18T02:37:11.887Z,1.30
2022-10-18T02:39:45.831Z,1.50
2022-10-18T02:42:14.737Z,1.48
2022-10-18T02:44:42.203Z,1.30
2022-10-18T02:47:12.735Z,1.42
2022-10-18T02:49:39.975Z,1.38
2022-10-18T02:52:09.566Z,1.52
2022-10-18T02:54:36.475Z,1.38
2022-10-18T02:57:03.513Z,1.55
2022-10-18T02:59:30.234Z,1.50
2022-10-18T03:01:57.115Z,2.20
2022-10-18T03:04:24.543Z,1.42
2022-10-18T03:06:51.642Z,1.90
2022-10-18T03:09:18.535Z,1.48
2022-10-18T03:11:45.388Z,2.22
2022-10-18T03:14:12.194Z,1.20
2022-10-18T03:16:39.072Z,1.50
2022-10-18T03:19:06.156Z,1.42
2022-10-18T03:21:33.027Z,1.13
2022-10-18T03:24:00.017Z,1.20
2022-10-18T03:26:27.043Z,0.75
2022-10-18T03:28:53.970Z,1.00
2022-10-18T03:31:20.933Z,1.30
2022-10-18T03:33:48.184Z,0.82
2022-10-18T03:36:15.758Z,1.30
2022-10-18T03:38:42.639Z,1.42
2022-10-18T03:41:09.667Z,1.33
2022-10-18T03:43:36.520Z,1.30
2022-10-18T03:46:03.226Z,1.35
2022-10-18T03:48:29.992Z,1.30
2022-10-18T03:50:57.034Z,1.20
2022-10-18T03:53:23.848Z,1.58
2022-10-18T03:55:54.785Z,1.52
2022-10-18T03:58:22.988Z,1.88
2022-10-18T04:00:53.045Z,1.55
2022-10-18T04:03:21.679Z,2.03
2022-10-18T04:05:49.471Z,2.45
2022-10-18T04:08:17.191Z,3.75
2022-10-18T04:10:44.679Z,2.70
2022-10-18T04:13:11.807Z,2.35
2022-10-18T04:15:38.496Z,2.60
2022-10-18T04:18:05.324Z,2.50
2022-10-18T04:20:32.070Z,2.90
2022-10-18T04:23:01.389Z,3.03
2022-10-18T04:25:29.581Z,3.45
2022-10-18T04:27:56.462Z,2.65
2022-10-18T04:30:24.315Z,3.30
2022-10-18T04:32:51.213Z,2.85
2022-10-18T04:35:20.336Z,2.55
2022-10-18T04:37:47.153Z,2.75
2022-10-18T04:40:13.750Z,2.30
2022-10-18T04:42:40.580Z,2.58
2022-10-18T04:45:07.953Z,2.30
2022-10-18T04:47:35.128Z,2.10
2022-10-18T04:50:02.096Z,2.13
2022-10-18T04:52:28.943Z,2.33
2022-10-18T04:54:55.865Z,2.60
2022-10-18T04:57:22.758Z,2.10
2022-10-18T04:59:49.637Z,1.90
2022-10-18T05:02:16.427Z,2.55
2022-10-18T05:04:43.265Z,2.40
2022-10-18T05:07:10.061Z,2.55
2022-10-18T05:09:36.898Z,2.70
2022-10-18T05:12:03.856Z,2.10
2022-10-18T05:14:30.411Z,1.95
2022-10-18T05:16:57.195Z,1.65
2022-10-18T05:19:24.065Z,1.90
2022-10-18T05:21:51.410Z,1.83
2022-10-18T05:24:18.155Z,1.17
2022-10-18T05:26:45.001Z,1.75
2022-10-18T05:29:11.916Z,1.45
2022-10-18T05:31:38.766Z,1.60
2022-10-18T05:34:05.587Z,1.27
2022-10-18T05:36:32.389Z,2.17
2022-10-18T05:39:02.402Z,2.60
2022-10-18T05:41:31.617Z,2.40
2022-10-18T05:43:58.769Z,2.20
2022-10-18T05:46:25.503Z,2.60
2022-10-18T05:48:52.354Z,2.42
2022-10-18T05:51:19.492Z,2.78
2022-10-18T05:53:46.567Z,2.72
2022-10-18T05:56:14.583Z,2.70
2022-10-18T05:58:42.445Z,2.88
2022-10-18T06:01:10.487Z,3.15
2022-10-18T06:03:37.586Z,3.60
2022-10-18T06:06:10.361Z,3.88
2022-10-18T06:08:38.811Z,3.55
2022-10-18T06:11:15.663Z,3.95
2022-10-18T06:13:44.356Z,4.43
2022-10-18T06:16:12.508Z,6.05
2022-10-18T06:18:39.991Z,6.78
2022-10-18T06:21:07.622Z,5.85
2022-10-18T06:23:35.228Z,6.18
2022-10-18T06:26:04.504Z,6.30
2022-10-18T06:28:31.246Z,6.47
2022-10-18T06:30:58.429Z,7.85
2022-10-18T06:33:25.893Z,6.18
2022-10-18T06:36:04.643Z,5.85
2022-10-18T06:38:31.534Z,5.47
2022-10-18T06:40:58.795Z,5.75
2022-10-18T06:43:26.481Z,6.07
2022-10-18T06:45:54.103Z,6.22
2022-10-18T06:48:22.084Z,5.78
2022-10-18T06:51:00.580Z,5.00
2022-10-18T06:53:30.787Z,5.28
2022-10-18T06:56:05.578Z,5.25
2022-10-18T06:58:33.068Z,5.07
2022-10-18T07:01:00.090Z,5.35
2022-10-18T07:03:27.482Z,5.00
2022-10-18T07:05:54.377Z,4.95
2022-10-18T07:08:21.184Z,6.50
2022-10-18T07:10:53.309Z,4.78
2022-10-18T07:13:31.898Z,4.38
2022-10-18T07:16:17.423Z,4.00
2022-10-18T07:18:51.423Z,3.88
2022-10-18T07:21:23.712Z,3.40
2022-10-18T07:23:54.073Z,3.97
2022-10-18T07:26:30.236Z,3.80
2022-10-18T07:29:00.622Z,2.97
2022-10-18T07:31:28.838Z,2.70
2022-10-18T07:33:55.699Z,2.50
2022-10-18T07:36:22.525Z,2.70
2022-10-18T07:38:52.289Z,2.97
2022-10-18T07:41:19.571Z,2.40
2022-10-18T07:43:51.800Z,2.20
2022-10-18T07:46:20.091Z,2.10
2022-10-18T07:48:47.343Z,2.17
2022-10-18T07:51:14.864Z,2.22
2022-10-18T07:53:41.749Z,1.90
2022-10-18T07:56:21.192Z,1.80
2022-10-18T07:58:53.738Z,2.08
2022-10-18T08:01:22.584Z,1.40
2022-10-18T08:03:50.231Z,1.50
2022-10-18T08:06:18.879Z,1.13
2022-10-18T08:08:47.275Z,1.30
2022-10-18T08:11:17.073Z,1.40
2022-10-18T08:13:44.286Z,1.33
2022-10-18T08:16:13.679Z,1.40
2022-10-18T08:18:40.830Z,1.52
2022-10-18T08:21:09.909Z,1.98
2022-10-18T08:23:37.623Z,1.45
2022-10-18T08:26:07.039Z,1.38
2022-10-18T08:28:36.891Z,1.60
2022-10-18T08:31:10.148Z,1.25
2022-10-18T08:33:37.323Z,1.00
2022-10-18T08:36:08.512Z,1.33
2022-10-18T08:38:51.754Z,1.27
2022-10-18T08:41:36.895Z,1.20
2022-10-18T08:44:07.469Z,1.13
2022-10-18T08:46:37.492Z,0.93
2022-10-18T08:49:05.407Z,1.08
2022-10-18T08:51:53.791Z,1.17
2022-10-18T08:54:36.668Z,1.10
2022-10-18T08:57:12.506Z,1.00
2022-10-18T08:59:40.854Z,0.90
2022-10-18T09:02:10.711Z,0.93
2022-10-18T09:04:49.791Z,0.95
2022-10-18T09:07:30.550Z,1.20
2022-10-18T09:10:03.141Z,0.82
2022-10-18T09:12:51.821Z,1.00
2022-10-18T09:15:30.033Z,1.15
2022-10-18T09:18:50.562Z,0.95
2022-10-18T09:21:58.067Z,0.90
2022-10-18T09:24:45.698Z,0.90
2022-10-18T09:27:16.889Z,1.60
2022-10-18T09:29:52.707Z,1.20
2022-10-18T09:32:25.724Z,1.33
2022-10-18T09:34:58.412Z,1.27
2022-10-18T09:37:28.122Z,1.05
2022-10-18T09:40:04.987Z,0.73
2022-10-18T09:42:38.380Z,1.17
2022-10-18T09:45:26.682Z,1.10
2022-10-18T09:48:22.051Z,1.15
2022-10-18T09:51:12.699Z,1.08
2022-10-18T09:53:54.343Z,1.25
2022-10-18T09:56:35.611Z,1.13
2022-10-18T09:59:29.026Z,1.27
2022-10-18T10:01:56.094Z,1.45
2022-10-18T10:04:22.916Z,1.50
2022-10-18T10:06:52.239Z,1.10
2022-10-18T10:09:27.606Z,1.08
2022-10-18T10:11:55.718Z,0.90
2022-10-18T10:14:27.914Z,0.90
2022-10-18T10:16:58.919Z,1.20
2022-10-18T10:19:32.709Z,1.50
2022-10-18T10:22:04.347Z,0.80
2022-10-18T10:24:40.059Z,1.00
2022-10-18T10:27:43.809Z,1.40
2022-10-18T10:30:34.054Z,0.80
2022-10-18T10:33:01.045Z,0.90
2022-10-18T10:38:25.840Z,0.90
2022-10-18T10:40:53.695Z,1.42
2022-10-18T10:43:38.608Z,1.50
2022-10-18T10:46:12.826Z,0.85
2022-10-18T10:48:49.731Z,1.33
2022-10-18T10:51:28.080Z,1.38
2022-10-18T10:54:04.568Z,0.70
2022-10-18T10:57:01.207Z,0.75
2022-10-18T10:59:53.039Z,0.70
2022-10-18T11:02:21.892Z,0.80
2022-10-18T11:04:54.360Z,1.10
2022-10-18T11:07:45.703Z,1.00
2022-10-18T11:10:23.005Z,1.30
2022-10-18T11:13:02.626Z,1.15
2022-10-18T11:15:41.822Z,0.88
2022-10-18T11:18:14.924Z,0.70
2022-10-18T11:20:53.620Z,1.13
2022-10-18T11:23:21.644Z,0.93
2022-10-18T11:26:32.946Z,1.00
2022-10-18T11:29:14.775Z,1.50
2022-10-18T11:32:19.183Z,0.98
2022-10-18T11:35:04.767Z,1.00
2022-10-18T11:40:38.019Z,0.98
2022-10-18T11:43:57.098Z,0.80
2022-10-18T11:46:26.735Z,0.80
2022-10-18T11:49:17.048Z,1.13
2022-10-18T11:52:14.105Z,1.10
2022-10-18T11:54:43.909Z,1.10
2022-10-18T11:57:38.808Z,1.10
2022-10-18T12:00:11.201Z,0.95
2022-10-18T12:02:57.398Z,1.40
2022-10-18T12:05:25.561Z,1.40
2022-10-18T12:08:13.716Z,1.70
2022-10-18T12:10:52.583Z,1.42
2022-10-18T12:13:39.213Z,1.90
2022-10-18T12:16:08.210Z,1.60
2022-10-18T12:18:41.791Z,1.50
2022-10-18T12:21:11.312Z,1.33
2022-10-18T12:23:56.588Z,1.58
2022-10-18T12:26:24.593Z,1.10
2022-10-18T12:29:00.594Z,1.15
2022-10-18T12:31:38.084Z,0.80
2022-10-18T12:34:23.832Z,1.05
2022-10-18T12:37:10.720Z,0.98
2022-10-18T12:40:08.724Z,0.90
2022-10-18T12:42:34.786Z,0.95
2022-10-18T12:45:19.357Z,1.20
2022-10-18T12:47:46.155Z,1.38
2022-10-18T12:50:25.448Z,1.00
2022-10-18T12:53:07.430Z,1.33
2022-10-18T12:55:39.170Z,1.20
2022-10-18T12:58:28.854Z,1.13
2022-10-18T13:01:02.472Z,1.17
2022-10-18T13:03:41.111Z,1.27
2022-10-18T13:06:08.177Z,1.50
2022-10-18T13:08:42.344Z,1.30
2022-10-18T13:11:09.289Z,1.40
2022-10-18T13:13:51.580Z,1.75
2022-10-18T13:16:36.702Z,1.55
2022-10-18T13:19:35.730Z,1.98
2022-10-18T13:22:27.066Z,1.75
2022-10-18T13:25:06.026Z,2.00
2022-10-18T13:28:05.384Z,2.20
2022-10-18T13:30:55.579Z,1.92
2022-10-18T13:33:31.141Z,1.70
2022-10-18T13:36:05.458Z,2.03
2022-10-18T13:38:58.383Z,2.00
2022-10-18T13:41:56.726Z,8.60
2022-10-18T13:44:38.519Z,2.50
2022-10-18T13:47:05.278Z,2.67
2022-10-18T13:49:40.140Z,2.40
2022-10-18T13:52:37.202Z,2.97
2022-10-18T13:55:22.802Z,2.65
2022-10-18T14:00:35.021Z,3.10
2022-10-18T14:03:32.007Z,5.72
2022-10-18T14:06:07.931Z,2.80
2022-10-18T14:08:45.619Z,2.60
2022-10-18T14:11:30.904Z,2.45
2022-10-18T14:14:19.186Z,2.25
2022-10-18T14:16:59.624Z,4.50
2022-10-18T14:19:29.223Z,2.70
2022-10-18T14:22:11.074Z,2.15
2022-10-18T14:24:43.589Z,1.90
2022-10-18T14:27:17.816Z,1.80
2022-10-18T14:29:44.893Z,1.63
2022-10-18T14:32:25.723Z,1.77
2022-10-18T14:34:55.756Z,1.77
2022-10-18T14:37:33.217Z,1.30
2022-10-18T14:40:00.345Z,1.40
2022-10-18T14:42:28.444Z,1.10
2022-10-18T14:44:56.545Z,1.00
2022-10-18T14:47:26.234Z,1.00
2022-10-18T14:49:54.732Z,1.00
2022-10-18T14:52:35.615Z,1.10
2022-10-18T14:55:02.961Z,1.10
2022-10-18T14:57:32.372Z,1.00
2022-10-18T15:00:03.217Z,0.98
2022-10-18T15:02:32.559Z,0.68
2022-10-18T15:05:21.821Z,0.77
2022-10-18T15:07:50.880Z,0.90
2022-10-18T15:10:22.090Z,0.80
2022-10-18T15:15:37.634Z,0.50
2022-10-18T15:18:05.503Z,0.40
2022-10-18T15:20:42.667Z,0.30
2022-10-18T15:23:25.720Z,0.60
2022-10-18T15:25:59.872Z,0.50
2022-10-18T15:28:50.129Z,0.70
2022-10-18T15:31:25.129Z,0.50
2022-10-18T15:33:53.273Z,0.45
2022-10-18T15:36:29.608Z,0.60
2022-10-18T15:39:27.447Z,0.63
2022-10-18T15:41:57.400Z,0.60
2022-10-18T15:44:48.891Z,0.80
2022-10-18T15:47:21.506Z,0.50
2022-10-18T15:49:58.316Z,0.55
2022-10-18T15:52:43.546Z,0.50
2022-10-18T15:55:33.113Z,0.40
2022-10-18T15:58:11.627Z,0.47
2022-10-18T16:00:38.423Z,0.40
2022-10-18T16:03:08.549Z,0.40
2022-10-18T16:05:36.622Z,0.55
2022-10-18T16:08:03.722Z,0.70
2022-10-18T16:10:30.584Z,0.60
2022-10-18T16:12:57.408Z,0.50
2022-10-18T16:15:24.268Z,0.43
2022-10-18T16:17:51.239Z,0.40
2022-10-18T16:20:23.641Z,0.90
2022-10-18T16:22:50.744Z,0.88
2022-10-18T16:25:17.757Z,1.15
2022-10-18T16:27:44.543Z,0.70
2022-10-18T16:30:15.193Z,0.80
2022-10-18T16:32:42.062Z,0.55
2022-10-18T16:35:10.227Z,1.30
2022-10-18T16:37:38.403Z,1.05
2022-10-18T16:40:33.866Z,0.80
2022-10-18T16:43:02.172Z,0.60
2022-10-18T16:45:28.994Z,0.75
2022-10-18T16:47:55.819Z,1.02
2022-10-18T16:50:22.937Z,0.70
2022-10-18T16:52:50.910Z,1.15
2022-10-18T16:55:25.255Z,0.90
2022-10-18T16:57:52.082Z,1.20
2022-10-18T17:00:22.262Z,1.15
2022-10-18T17:02:49.902Z,1.05
2022-10-18T17:05:18.889Z,0.75
2022-10-18T17:07:46.831Z,0.98
2022-10-18T17:10:17.805Z,0.93
2022-10-18T17:12:44.740Z,0.80
2022-10-18T17:15:12.383Z,0.80
2022-10-18T17:17:41.158Z,0.88
2022-10-18T17:20:09.755Z,1.42
2022-10-18T17:22:36.660Z,0.90
2022-10-18T17:25:03.982Z,1.15
2022-10-18T17:27:31.209Z,1.00
2022-10-18T17:29:58.147Z,0.95
2022-10-18T17:32:25.079Z,1.00
2022-10-18T17:34:51.825Z,0.80
2022-10-18T17:37:18.802Z,0.70
2022-10-18T17:39:45.506Z,0.93
2022-10-18T17:42:12.374Z,0.70
2022-10-18T17:44:39.256Z,0.70
2022-10-18T17:47:06.097Z,0.80
2022-10-18T17:49:32.864Z,0.70
2022-10-18T17:52:04.540Z,0.80
2022-10-18T17:54:33.930Z,0.73
2022-10-18T17:57:00.714Z,1.10
2022-10-18T17:59:27.523Z,0.80
2022-10-18T18:01:54.650Z,1.10
2022-10-18T18:04:21.498Z,0.82
2022-10-18T18:06:49.268Z,0.90
2022-10-18T18:09:17.002Z,0.80
2022-10-18T18:11:45.262Z,1.10
2022-10-18T18:14:12.474Z,1.23
2022-10-18T18:16:42.233Z,1.05
2022-10-18T18:19:10.278Z,0.70
2022-10-18T18:21:37.302Z,0.65
2022-10-18T18:24:04.212Z,0.80
2022-10-18T18:26:33.788Z,0.57
2022-10-18T18:31:34.419Z,0.57
2022-10-18T18:34:06.915Z,0.77
2022-10-18T18:36:33.876Z,0.70
2022-10-18T18:39:00.798Z,0.57
2022-10-18T18:41:32.220Z,0.50
2022-10-18T18:44:02.394Z,0.65
2022-10-18T18:46:33.256Z,2.65
2022-10-18T18:48:59.971Z,1.00
2022-10-18T18:51:27.154Z,0.80
2022-10-18T18:53:54.180Z,1.05
2022-10-18T18:56:24.753Z,0.73
2022-10-18T18:58:52.797Z,0.75
2022-10-18T19:01:25.611Z,0.65
2022-10-18T19:03:55.136Z,0.50
2022-10-18T19:06:23.773Z,0.70
2022-10-18T19:08:53.979Z,0.70
2022-10-18T19:11:22.586Z,0.63
2022-10-18T19:13:50.032Z,0.70
2022-10-18T19:16:34.015Z,0.77
2022-10-18T19:19:12.007Z,0.80
2022-10-18T19:21:51.534Z,0.90
2022-10-18T19:24:19.792Z,0.93
2022-10-18T19:26:47.879Z,0.90
2022-10-18T19:29:29.530Z,0.65
2022-10-18T19:31:58.925Z,0.73
2022-10-18T19:34:27.467Z,0.65
2022-10-18T19:36:55.326Z,0.52
2022-10-18T19:39:24.607Z,0.70
2022-10-18T19:41:55.283Z,0.90
2022-10-18T19:44:24.169Z,0.60
2022-10-18T19:46:51.066Z,1.33
2022-10-18T19:49:18.355Z,0.80
2022-10-18T19:51:45.352Z,0.60
2022-10-18T19:54:13.625Z,0.70
2022-10-18T19:56:41.967Z,0.60
2022-10-18T19:59:10.298Z,0.90
2022-10-18T20:01:37.456Z,0.60
2022-10-18T20:04:05.281Z,0.57
2022-10-18T20:06:32.667Z,0.57
2022-10-18T20:08:59.922Z,0.47
2022-10-18T20:11:28.785Z,0.77
2022-10-18T20:13:56.825Z,0.70
2022-10-18T20:16:28.629Z,0.55
2022-10-18T20:19:04.328Z,0.65
2022-10-18T20:21:36.004Z,0.60
2022-10-18T20:24:04.949Z,0.50
2022-10-18T20:26:31.936Z,0.50
2022-10-18T20:29:00.071Z,0.73
2022-10-18T20:31:30.398Z,0.70
2022-10-18T20:34:00.438Z,0.60
2022-10-18T20:36:29.792Z,0.55
2022-10-18T20:38:57.021Z,0.40
2022-10-18T20:41:25.553Z,0.40
2022-10-18T20:43:54.786Z,0.40
2022-10-18T20:46:22.362Z,0.40
2022-10-18T20:48:50.633Z,0.60
2022-10-18T20:51:18.566Z,0.35
2022-10-18T20:53:46.009Z,0.40
2022-10-18T20:56:15.119Z,0.30
2022-10-18T20:58:44.395Z,0.75
2022-10-18T21:01:14.957Z,0.50
2022-10-18T21:03:44.544Z,0.40
2022-10-18T21:06:14.165Z,0.40
2022-10-18T21:08:41.298Z,0.32
2022-10-18T21:11:08.843Z,0.38
2022-10-18T21:13:35.906Z,0.30
2022-10-18T21:16:04.075Z,0.45
2022-10-18T21:18:32.976Z,0.20
2022-10-18T21:21:17.751Z,0.40
2022-10-18T21:23:44.995Z,0.40
2022-10-18T21:26:20.308Z,0.50
2022-10-18T21:28:50.122Z,0.40
2022-10-18T21:31:22.376Z,0.45
2022-10-18T21:33:54.403Z,0.45
2022-10-18T21:36:22.145Z,0.35
2022-10-18T21:38:49.455Z,1.77
2022-10-18T21:41:18.002Z,0.57
2022-10-18T21:43:48.037Z,0.30
2022-10-18T21:46:16.967Z,0.30
2022-10-18T21:48:46.131Z,0.43
2022-10-18T21:51:14.954Z,0.22
2022-10-18T21:53:47.310Z,0.40
2022-10-18T21:56:19.813Z,0.35
2022-10-18T21:58:46.768Z,0.38
2022-10-18T22:01:22.919Z,0.52
2022-10-18T22:03:51.446Z,0.40
2022-10-18T22:06:19.092Z,1.77
2022-10-18T22:08:53.422Z,0.38
2022-10-18T22:11:23.198Z,0.40
2022-10-18T22:13:50.317Z,0.55
2022-10-18T22:16:17.731Z,0.38
2022-10-18T22:18:45.775Z,0.55
2022-10-18T22:21:14.874Z,0.68
2022-10-18T22:23:44.752Z,0.60
2022-10-18T22:26:18.242Z,0.30
2022-10-18T22:28:48.054Z,0.35
2022-10-18T22:31:20.491Z,0.40
2022-10-18T22:33:52.399Z,0.38
2022-10-18T22:36:19.673Z,0.50
2022-10-18T22:38:46.452Z,0.40
2022-10-18T22:41:13.992Z,0.20
2022-10-18T22:43:41.455Z,0.50
2022-10-18T22:46:11.177Z,0.30
2022-10-18T22:48:38.082Z,0.52
2022-10-18T22:51:05.808Z,0.45
2022-10-18T22:53:33.391Z,0.43
2022-10-18T22:56:00.306Z,0.30
2022-10-18T22:58:27.473Z,0.47
2022-10-18T23:01:06.151Z,0.30
2022-10-18T23:03:34.710Z,0.20
2022-10-18T23:06:01.934Z,0.45
2022-10-18T23:08:30.169Z,0.30
2022-10-18T23:10:59.234Z,0.63
2022-10-18T23:13:27.919Z,0.40
2022-10-18T23:16:04.405Z,0.70
2022-10-18T23:18:32.922Z,0.93
2022-10-18T23:21:08.610Z,0.60
2022-10-18T23:23:37.210Z,0.40
2022-10-18T23:26:12.376Z,0.60
2022-10-18T23:31:14.707Z,0.40
2022-10-18T23:33:41.733Z,0.57
2022-10-18T23:36:09.148Z,0.40
2022-10-18T23:38:37.431Z,0.40
2022-10-18T23:41:06.218Z,0.55
2022-10-18T23:43:33.698Z,0.60
2022-10-18T23:46:01.039Z,0.60
2022-10-18T23:48:28.212Z,0.45
2022-10-18T23:50:55.538Z,0.47
2022-10-18T23:53:23.274Z,0.40
2022-10-18T23:55:56.995Z,1.05
2022-10-18T23:58:24.641Z,0.40
